sensor_id;sensor_type;location;lat;lon;timestamp;temperature;humidity
6206;DHT22;3136;48.788;9.772;2022-09-24T00:01:14;9.40;1.00
6206;DHT22;3136;48.788;9.772;2022-09-24T00:03:40;9.40;99.90
6206;DHT22;3136;48.788;9.772;2022-09-24T00:06:08;9.40;99.90
6206;DHT22;3136;48.788;9.772;2022-09-24T00:08:34;9.40;99.90
6206;DHT22;3136;48.788;9.772;2022-09-24T00:11:03;9.30;99.90
6206;DHT22;3136;48.788;9.772;2022-09-24T00:13:29;9.30;1.00
6206;DHT22;3136;48.788;9.772;2022-09-24T00:15:55;9.30;97.30
6206;DHT22;3136;48.788;9.772;2022-09-24T00:18:21;9.30;99.90
6206;DHT22;3136;48.788;9.772;2022-09-24T00:20:47;9.40;99.90
6206;DHT22;3136;48.788;9.772;2022-09-24T00:23:13;9.30;99.90
6206;DHT22;3136;48.788;9.772;2022-09-24T00:25:42;9.30;1.00
6206;DHT22;3136;48.788;9.772;2022-09-24T00:28:27;9.20;99.90
6206;DHT22;3136;48.788;9.772;2022-09-24T00:30:53;9.30;1.00
6206;DHT22;3136;48.788;9.772;2022-09-24T00:33:19;9.30;1.00
6206;DHT22;3136;48.788;9.772;2022-09-24T00:35:45;9.30;99.90
6206;DHT22;3136;48.788;9.772;2022-09-24T00:38:11;9.30;99.90
6206;DHT22;3136;48.788;9.772;2022-09-24T00:40:37;9.30;99.90
6206;DHT22;3136;48.788;9.772;2022-09-24T00:43:26;9.30;1.00
6206;DHT22;3136;48.788;9.772;2022-09-24T00:46:02;9.40;1.00
6206;DHT22;3136;48.788;9.772;2022-09-24T00:48:29;9.40;99.90
6206;DHT22;3136;48.788;9.772;2022-09-24T00:50:58;9.40;99.90
6206;DHT22;3136;48.788;9.772;2022-09-24T00:53:24;9.40;99.90
6206;DHT22;3136;48.788;9.772;2022-09-24T00:55:55;9.40;1.00
6206;DHT22;3136;48.788;9.772;2022-09-24T00:58:21;9.40;1.00
6206;DHT22;3136;48.788;9.772;2022-09-24T01:00:50;9.50;24.10
6206;DHT22;3136;48.788;9.772;2022-09-24T01:03:19;9.50;1.00
6206;DHT22;3136;48.788;9.772;2022-09-24T01:05:46;9.50;99.90
6206;DHT22;3136;48.788;9.772;2022-09-24T01:08:13;9.40;1.00
6206;DHT22;3136;48.788;9.772;2022-09-24T01:13:32;9.40;1.00
6206;DHT22;3136;48.788;9.772;2022-09-24T01:16:13;9.30;40.00
6206;DHT22;3136;48.788;9.772;2022-09-24T01:18:58;9.30;1.00
6206;DHT22;3136;48.788;9.772;2022-09-24T01:21:41;9.30;1.00
6206;DHT22;3136;48.788;9.772;2022-09-24T01:24:57;9.30;99.90
6206;DHT22;3136;48.788;9.772;2022-09-24T01:30:20;9.30;1.00
6206;DHT22;3136;48.788;9.772;2022-09-24T01:32:53;9.20;1.00
6206;DHT22;3136;48.788;9.772;2022-09-24T01:37:56;9.20;99.90
6206;DHT22;3136;48.788;9.772;2022-09-24T01:40:24;9.10;99.90
6206;DHT22;3136;48.788;9.772;2022-09-24T01:42:52;9.10;99.90
6206;DHT22;3136;48.788;9.772;2022-09-24T01:45:20;9.10;1.00
6206;DHT22;3136;48.788;9.772;2022-09-24T01:47:46;9.10;1.00
6206;DHT22;3136;48.788;9.772;2022-09-24T01:50:16;9.00;99.90
6206;DHT22;3136;48.788;9.772;2022-09-24T01:52:58;8.90;57.20
6206;DHT22;3136;48.788;9.772;2022-09-24T01:55:27;8.90;1.00
6206;DHT22;3136;48.788;9.772;2022-09-24T01:58:00;8.80;1.00
6206;DHT22;3136;48.788;9.772;2022-09-24T02:00:28;8.80;99.90
6206;DHT22;3136;48.788;9.772;2022-09-24T02:05:47;8.70;1.00
6206;DHT22;3136;48.788;9.772;2022-09-24T02:08:28;8.60;1.00
6206;DHT22;3136;48.788;9.772;2022-09-24T02:10:56;8.60;99.90
6206;DHT22;3136;48.788;9.772;2022-09-24T02:13:28;8.60;99.90
6206;DHT22;3136;48.788;9.772;2022-09-24T02:15:58;8.50;99.90
6206;DHT22;3136;48.788;9.772;2022-09-24T02:18:30;8.50;99.90
6206;DHT22;3136;48.788;9.772;2022-09-24T02:20:59;8.50;1.00
6206;DHT22;3136;48.788;9.772;2022-09-24T02:23:27;8.50;1.00
6206;DHT22;3136;48.788;9.772;2022-09-24T02:25:58;8.40;1.00
6206;DHT22;3136;48.788;9.772;2022-09-24T02:28:26;8.40;1.00
6206;DHT22;3136;48.788;9.772;2022-09-24T02:31:05;8.40;1.00
6206;DHT22;3136;48.788;9.772;2022-09-24T02:33:33;8.30;1.00
6206;DHT22;3136;48.788;9.772;2022-09-24T02:36:18;8.30;1.00
6206;DHT22;3136;48.788;9.772;2022-09-24T02:38:45;8.30;1.00
6206;DHT22;3136;48.788;9.772;2022-09-24T02:41:12;8.30;1.00
6206;DHT22;3136;48.788;9.772;2022-09-24T02:43:38;8.30;1.00
6206;DHT22;3136;48.788;9.772;2022-09-24T02:46:05;8.20;1.00
6206;DHT22;3136;48.788;9.772;2022-09-24T02:48:33;8.20;1.00
6206;DHT22;3136;48.788;9.772;2022-09-24T02:50:58;8.20;68.60
6206;DHT22;3136;48.788;9.772;2022-09-24T02:53:24;8.20;99.90
6206;DHT22;3136;48.788;9.772;2022-09-24T02:55:50;8.20;99.90
6206;DHT22;3136;48.788;9.772;2022-09-24T02:58:16;8.20;99.90
6206;DHT22;3136;48.788;9.772;2022-09-24T03:00:41;8.20;99.90
6206;DHT22;3136;48.788;9.772;2022-09-24T03:03:08;8.20;99.90
6206;DHT22;3136;48.788;9.772;2022-09-24T03:05:33;8.20;99.90
6206;DHT22;3136;48.788;9.772;2022-09-24T03:07:59;8.20;99.90
6206;DHT22;3136;48.788;9.772;2022-09-24T03:10:24;8.20;99.90
6206;DHT22;3136;48.788;9.772;2022-09-24T03:12:50;8.20;99.90
6206;DHT22;3136;48.788;9.772;2022-09-24T03:15:16;8.20;99.90
6206;DHT22;3136;48.788;9.772;2022-09-24T03:17:41;8.20;99.90
6206;DHT22;3136;48.788;9.772;2022-09-24T03:20:07;8.20;99.90
6206;DHT22;3136;48.788;9.772;2022-09-24T03:22:33;8.30;99.90
6206;DHT22;3136;48.788;9.772;2022-09-24T03:24:58;8.30;99.90
6206;DHT22;3136;48.788;9.772;2022-09-24T03:27:24;8.30;99.90
6206;DHT22;3136;48.788;9.772;2022-09-24T03:29:49;8.30;99.90
6206;DHT22;3136;48.788;9.772;2022-09-24T03:32:33;8.30;99.90
6206;DHT22;3136;48.788;9.772;2022-09-24T03:35:00;8.30;99.90
6206;DHT22;3136;48.788;9.772;2022-09-24T03:37:25;8.30;99.90
6206;DHT22;3136;48.788;9.772;2022-09-24T03:39:51;8.40;99.90
6206;DHT22;3136;48.788;9.772;2022-09-24T03:42:17;8.40;99.90
6206;DHT22;3136;48.788;9.772;2022-09-24T03:44:42;8.40;99.90
6206;DHT22;3136;48.788;9.772;2022-09-24T03:47:08;8.40;99.90
6206;DHT22;3136;48.788;9.772;2022-09-24T03:49:34;8.40;99.90
6206;DHT22;3136;48.788;9.772;2022-09-24T03:52:00;8.40;99.90
6206;DHT22;3136;48.788;9.772;2022-09-24T03:54:25;8.40;99.90
6206;DHT22;3136;48.788;9.772;2022-09-24T03:56:51;8.40;99.90
6206;DHT22;3136;48.788;9.772;2022-09-24T03:59:16;8.40;99.90
6206;DHT22;3136;48.788;9.772;2022-09-24T04:01:42;8.40;99.90
6206;DHT22;3136;48.788;9.772;2022-09-24T04:04:07;8.40;99.90
6206;DHT22;3136;48.788;9.772;2022-09-24T04:06:33;8.50;99.90
6206;DHT22;3136;48.788;9.772;2022-09-24T04:08:59;8.50;99.90
6206;DHT22;3136;48.788;9.772;2022-09-24T04:11:25;8.50;99.90
6206;DHT22;3136;48.788;9.772;2022-09-24T04:13:50;8.50;99.90
6206;DHT22;3136;48.788;9.772;2022-09-24T04:16:16;8.50;99.90
6206;DHT22;3136;48.788;9.772;2022-09-24T04:18:42;8.50;99.90
6206;DHT22;3136;48.788;9.772;2022-09-24T04:21:08;8.50;99.90
6206;DHT22;3136;48.788;9.772;2022-09-24T04:23:33;8.50;99.90
6206;DHT22;3136;48.788;9.772;2022-09-24T04:25:59;8.50;99.90
6206;DHT22;3136;48.788;9.772;2022-09-24T04:28:27;8.50;99.90
6206;DHT22;3136;48.788;9.772;2022-09-24T04:30:53;8.60;99.90
6206;DHT22;3136;48.788;9.772;2022-09-24T04:33:18;8.60;99.90
6206;DHT22;3136;48.788;9.772;2022-09-24T04:35:44;8.70;99.90
6206;DHT22;3136;48.788;9.772;2022-09-24T04:38:10;8.70;99.90
6206;DHT22;3136;48.788;9.772;2022-09-24T04:40:36;8.70;99.90
6206;DHT22;3136;48.788;9.772;2022-09-24T04:43:02;8.70;99.90
6206;DHT22;3136;48.788;9.772;2022-09-24T04:45:31;8.60;99.90
6206;DHT22;3136;48.788;9.772;2022-09-24T04:47:57;8.70;99.90
6206;DHT22;3136;48.788;9.772;2022-09-24T04:50:24;8.70;99.90
6206;DHT22;3136;48.788;9.772;2022-09-24T04:52:50;8.70;99.90
6206;DHT22;3136;48.788;9.772;2022-09-24T04:55:16;8.70;99.90
6206;DHT22;3136;48.788;9.772;2022-09-24T04:57:43;8.70;99.90
6206;DHT22;3136;48.788;9.772;2022-09-24T05:00:12;8.70;99.90
6206;DHT22;3136;48.788;9.772;2022-09-24T05:02:39;8.70;99.90
6206;DHT22;3136;48.788;9.772;2022-09-24T05:05:05;8.70;99.90
6206;DHT22;3136;48.788;9.772;2022-09-24T05:07:31;8.70;99.90
6206;DHT22;3136;48.788;9.772;2022-09-24T05:09:57;8.70;99.90
6206;DHT22;3136;48.788;9.772;2022-09-24T05:12:22;8.80;99.90
6206;DHT22;3136;48.788;9.772;2022-09-24T05:14:48;8.80;99.90
6206;DHT22;3136;48.788;9.772;2022-09-24T05:17:14;8.90;99.90
6206;DHT22;3136;48.788;9.772;2022-09-24T05:19:39;8.90;99.90
6206;DHT22;3136;48.788;9.772;2022-09-24T05:22:05;8.90;99.90
6206;DHT22;3136;48.788;9.772;2022-09-24T05:24:31;9.00;99.90
6206;DHT22;3136;48.788;9.772;2022-09-24T05:26:56;8.90;99.90
6206;DHT22;3136;48.788;9.772;2022-09-24T05:29:38;9.00;99.90
6206;DHT22;3136;48.788;9.772;2022-09-24T05:32:09;9.00;99.90
6206;DHT22;3136;48.788;9.772;2022-09-24T05:34:35;9.00;99.90
6206;DHT22;3136;48.788;9.772;2022-09-24T05:37:02;9.00;99.90
6206;DHT22;3136;48.788;9.772;2022-09-24T05:39:28;9.10;99.90
6206;DHT22;3136;48.788;9.772;2022-09-24T05:41:55;9.10;99.90
6206;DHT22;3136;48.788;9.772;2022-09-24T05:44:21;9.10;99.90
6206;DHT22;3136;48.788;9.772;2022-09-24T05:46:48;9.10;99.90
6206;DHT22;3136;48.788;9.772;2022-09-24T05:49:14;9.20;99.90
6206;DHT22;3136;48.788;9.772;2022-09-24T05:51:39;9.20;99.90
6206;DHT22;3136;48.788;9.772;2022-09-24T05:54:05;9.20;99.90
6206;DHT22;3136;48.788;9.772;2022-09-24T05:56:30;9.20;99.90
6206;DHT22;3136;48.788;9.772;2022-09-24T05:58:56;9.30;99.90
6206;DHT22;3136;48.788;9.772;2022-09-24T06:01:22;9.30;99.90
6206;DHT22;3136;48.788;9.772;2022-09-24T06:03:49;9.40;99.90
6206;DHT22;3136;48.788;9.772;2022-09-24T06:06:14;9.40;99.90
6206;DHT22;3136;48.788;9.772;2022-09-24T06:08:40;9.40;99.90
6206;DHT22;3136;48.788;9.772;2022-09-24T06:11:06;9.50;99.90
6206;DHT22;3136;48.788;9.772;2022-09-24T06:13:33;9.50;99.90
6206;DHT22;3136;48.788;9.772;2022-09-24T06:16:01;9.60;99.90
6206;DHT22;3136;48.788;9.772;2022-09-24T06:18:27;9.70;99.90
6206;DHT22;3136;48.788;9.772;2022-09-24T06:20:53;9.70;1.00
6206;DHT22;3136;48.788;9.772;2022-09-24T06:23:19;9.70;1.00
6206;DHT22;3136;48.788;9.772;2022-09-24T06:25:48;9.80;1.00
6206;DHT22;3136;48.788;9.772;2022-09-24T06:28:15;9.80;1.00
6206;DHT22;3136;48.788;9.772;2022-09-24T06:30:41;9.80;1.00
6206;DHT22;3136;48.788;9.772;2022-09-24T06:33:09;9.80;99.90
6206;DHT22;3136;48.788;9.772;2022-09-24T06:35:35;9.80;1.00
6206;DHT22;3136;48.788;9.772;2022-09-24T06:38:06;9.90;99.90
6206;DHT22;3136;48.788;9.772;2022-09-24T06:40:32;10.40;99.90
6206;DHT22;3136;48.788;9.772;2022-09-24T06:42:58;10.10;70.30
6206;DHT22;3136;48.788;9.772;2022-09-24T06:45:24;10.00;56.40
6206;DHT22;3136;48.788;9.772;2022-09-24T06:47:55;10.10;99.90
6206;DHT22;3136;48.788;9.772;2022-09-24T06:50:23;10.10;1.00
6206;DHT22;3136;48.788;9.772;2022-09-24T06:52:48;10.20;1.00
6206;DHT22;3136;48.788;9.772;2022-09-24T06:55:14;10.30;1.00
6206;DHT22;3136;48.788;9.772;2022-09-24T06:57:41;10.30;1.00
6206;DHT22;3136;48.788;9.772;2022-09-24T07:00:07;10.40;1.00
6206;DHT22;3136;48.788;9.772;2022-09-24T07:02:32;10.50;1.00
6206;DHT22;3136;48.788;9.772;2022-09-24T07:04:58;10.50;1.00
6206;DHT22;3136;48.788;9.772;2022-09-24T07:07:24;10.60;39.80
6206;DHT22;3136;48.788;9.772;2022-09-24T07:09:58;10.70;1.00
6206;DHT22;3136;48.788;9.772;2022-09-24T07:12:24;10.70;99.90
6206;DHT22;3136;48.788;9.772;2022-09-24T07:14:50;10.90;99.90
6206;DHT22;3136;48.788;9.772;2022-09-24T07:17:15;11.10;1.00
6206;DHT22;3136;48.788;9.772;2022-09-24T07:19:41;11.10;1.00
6206;DHT22;3136;48.788;9.772;2022-09-24T07:22:07;11.50;1.00
6206;DHT22;3136;48.788;9.772;2022-09-24T07:24:33;11.20;1.00
6206;DHT22;3136;48.788;9.772;2022-09-24T07:26:58;11.20;1.00
6206;DHT22;3136;48.788;9.772;2022-09-24T07:29:24;11.30;1.00
6206;DHT22;3136;48.788;9.772;2022-09-24T07:31:49;11.40;1.00
6206;DHT22;3136;48.788;9.772;2022-09-24T07:34:15;11.40;99.90
6206;DHT22;3136;48.788;9.772;2022-09-24T07:36:41;11.40;99.90
6206;DHT22;3136;48.788;9.772;2022-09-24T07:39:08;11.40;99.90
6206;DHT22;3136;48.788;9.772;2022-09-24T07:41:34;12.40;99.90
6206;DHT22;3136;48.788;9.772;2022-09-24T07:43:59;11.50;99.90
6206;DHT22;3136;48.788;9.772;2022-09-24T07:46:26;11.50;99.90
6206;DHT22;3136;48.788;9.772;2022-09-24T07:48:55;11.60;99.90
6206;DHT22;3136;48.788;9.772;2022-09-24T07:51:24;11.60;99.90
6206;DHT22;3136;48.788;9.772;2022-09-24T07:53:50;11.60;99.90
6206;DHT22;3136;48.788;9.772;2022-09-24T07:56:16;11.70;99.90
6206;DHT22;3136;48.788;9.772;2022-09-24T07:58:42;11.80;99.90
6206;DHT22;3136;48.788;9.772;2022-09-24T08:01:07;11.90;99.90
6206;DHT22;3136;48.788;9.772;2022-09-24T08:03:33;12.00;99.90
6206;DHT22;3136;48.788;9.772;2022-09-24T08:05:58;12.10;99.90
6206;DHT22;3136;48.788;9.772;2022-09-24T08:08:26;12.10;99.90
6206;DHT22;3136;48.788;9.772;2022-09-24T08:10:51;12.10;99.90
6206;DHT22;3136;48.788;9.772;2022-09-24T08:13:17;12.20;99.90
6206;DHT22;3136;48.788;9.772;2022-09-24T08:15:43;12.20;99.90
6206;DHT22;3136;48.788;9.772;2022-09-24T08:18:08;12.20;99.90
6206;DHT22;3136;48.788;9.772;2022-09-24T08:20:36;13.90;99.90
6206;DHT22;3136;48.788;9.772;2022-09-24T08:23:07;12.50;99.90
6206;DHT22;3136;48.788;9.772;2022-09-24T08:25:34;12.50;99.90
6206;DHT22;3136;48.788;9.772;2022-09-24T08:28:01;12.50;99.90
6206;DHT22;3136;48.788;9.772;2022-09-24T08:30:26;12.50;99.90
6206;DHT22;3136;48.788;9.772;2022-09-24T08:32:52;12.60;99.90
6206;DHT22;3136;48.788;9.772;2022-09-24T08:35:17;12.60;99.90
6206;DHT22;3136;48.788;9.772;2022-09-24T08:37:43;12.70;99.90
6206;DHT22;3136;48.788;9.772;2022-09-24T08:40:17;12.70;99.90
6206;DHT22;3136;48.788;9.772;2022-09-24T08:43:08;12.90;99.90
6206;DHT22;3136;48.788;9.772;2022-09-24T08:45:52;13.00;99.90
6206;DHT22;3136;48.788;9.772;2022-09-24T08:48:41;13.20;99.90
6206;DHT22;3136;48.788;9.772;2022-09-24T08:51:13;13.30;99.90
6206;DHT22;3136;48.788;9.772;2022-09-24T08:54:15;13.50;99.90
6206;DHT22;3136;48.788;9.772;2022-09-24T08:56:35;13.60;99.90
6206;DHT22;3136;48.788;9.772;2022-09-24T08:59:13;13.80;99.90
6206;DHT22;3136;48.788;9.772;2022-09-24T09:01:55;13.90;94.30
6206;DHT22;3136;48.788;9.772;2022-09-24T09:04:25;14.00;56.30
6206;DHT22;3136;48.788;9.772;2022-09-24T09:09:46;14.20;59.50
6206;DHT22;3136;48.788;9.772;2022-09-24T09:12:22;14.30;41.20
6206;DHT22;3136;48.788;9.772;2022-09-24T09:14:59;14.40;30.20
6206;DHT22;3136;48.788;9.772;2022-09-24T09:21:39;14.50;26.80
6206;DHT22;3136;48.788;9.772;2022-09-24T09:24:16;14.60;15.60
6206;DHT22;3136;48.788;9.772;2022-09-24T09:26:46;14.60;24.80
6206;DHT22;3136;48.788;9.772;2022-09-24T09:29:12;15.00;21.10
6206;DHT22;3136;48.788;9.772;2022-09-24T09:35:10;15.00;30.40
6206;DHT22;3136;48.788;9.772;2022-09-24T09:42:46;15.20;11.90
6206;DHT22;3136;48.788;9.772;2022-09-24T09:47:59;15.30;3.20
6206;DHT22;3136;48.788;9.772;2022-09-24T09:50:49;15.30;6.30
6206;DHT22;3136;48.788;9.772;2022-09-24T09:53:21;15.30;5.30
6206;DHT22;3136;48.788;9.772;2022-09-24T09:55:55;15.40;5.10
6206;DHT22;3136;48.788;9.772;2022-09-24T09:58:24;15.40;1.00
6206;DHT22;3136;48.788;9.772;2022-09-24T10:00:51;15.40;1.00
6206;DHT22;3136;48.788;9.772;2022-09-24T10:03:31;15.50;1.00
6206;DHT22;3136;48.788;9.772;2022-09-24T10:05:59;15.50;1.00
6206;DHT22;3136;48.788;9.772;2022-09-24T10:08:28;15.60;1.00
6206;DHT22;3136;48.788;9.772;2022-09-24T10:10:55;15.50;1.00
6206;DHT22;3136;48.788;9.772;2022-09-24T10:13:22;15.60;1.00
6206;DHT22;3136;48.788;9.772;2022-09-24T10:15:56;15.60;1.00
6206;DHT22;3136;48.788;9.772;2022-09-24T10:21:01;15.70;1.00
6206;DHT22;3136;48.788;9.772;2022-09-24T10:23:44;15.80;1.00
6206;DHT22;3136;48.788;9.772;2022-09-24T10:26:13;15.70;1.00
6206;DHT22;3136;48.788;9.772;2022-09-24T10:28:45;15.70;1.00
6206;DHT22;3136;48.788;9.772;2022-09-24T10:31:31;15.90;1.00
6206;DHT22;3136;48.788;9.772;2022-09-24T10:34:00;15.80;1.00
6206;DHT22;3136;48.788;9.772;2022-09-24T10:36:28;15.80;1.00
6206;DHT22;3136;48.788;9.772;2022-09-24T10:39:23;15.70;1.00
6206;DHT22;3136;48.788;9.772;2022-09-24T10:41:53;15.80;1.00
6206;DHT22;3136;48.788;9.772;2022-09-24T10:44:21;17.20;1.00
6206;DHT22;3136;48.788;9.772;2022-09-24T10:47:32;16.60;1.00
6206;DHT22;3136;48.788;9.772;2022-09-24T10:52:47;16.20;1.00
6206;DHT22;3136;48.788;9.772;2022-09-24T10:58:33;16.40;1.00
6206;DHT22;3136;48.788;9.772;2022-09-24T11:12:38;16.70;1.00
6206;DHT22;3136;48.788;9.772;2022-09-24T11:20:28;16.70;1.00
6206;DHT22;3136;48.788;9.772;2022-09-24T11:22:59;16.70;1.00
6206;DHT22;3136;48.788;9.772;2022-09-24T11:34:24;16.70;1.00
6206;DHT22;3136;48.788;9.772;2022-09-24T11:42:26;16.80;1.00
6206;DHT22;3136;48.788;9.772;2022-09-24T11:53:50;18.70;1.00
6206;DHT22;3136;48.788;9.772;2022-09-24T11:56:30;19.20;1.00
6206;DHT22;3136;48.788;9.772;2022-09-24T12:01:50;19.40;1.00
6206;DHT22;3136;48.788;9.772;2022-09-24T12:04:22;19.50;1.00
6206;DHT22;3136;48.788;9.772;2022-09-24T12:07:05;18.60;1.00
6206;DHT22;3136;48.788;9.772;2022-09-24T12:09:51;18.30;1.00
6206;DHT22;3136;48.788;9.772;2022-09-24T12:17:20;17.50;1.00
6206;DHT22;3136;48.788;9.772;2022-09-24T12:19:56;17.40;1.00
6206;DHT22;3136;48.788;9.772;2022-09-24T12:22:25;17.40;1.00
6206;DHT22;3136;48.788;9.772;2022-09-24T12:24:56;17.10;1.00
6206;DHT22;3136;48.788;9.772;2022-09-24T12:27:33;17.10;1.00
6206;DHT22;3136;48.788;9.772;2022-09-24T12:33:26;17.00;1.00
6206;DHT22;3136;48.788;9.772;2022-09-24T12:38:52;16.90;1.00
6206;DHT22;3136;48.788;9.772;2022-09-24T12:41:31;17.00;1.00
6206;DHT22;3136;48.788;9.772;2022-09-24T12:49:09;16.90;1.00
6206;DHT22;3136;48.788;9.772;2022-09-24T12:51:36;16.80;1.00
6206;DHT22;3136;48.788;9.772;2022-09-24T12:56:49;16.60;1.00
6206;DHT22;3136;48.788;9.772;2022-09-24T12:59:25;16.60;1.00
6206;DHT22;3136;48.788;9.772;2022-09-24T13:01:51;16.40;1.00
6206;DHT22;3136;48.788;9.772;2022-09-24T13:06:44;16.40;1.00
6206;DHT22;3136;48.788;9.772;2022-09-24T13:09:32;16.50;1.00
6206;DHT22;3136;48.788;9.772;2022-09-24T13:14:33;16.50;1.00
6206;DHT22;3136;48.788;9.772;2022-09-24T13:17:04;16.50;1.00
6206;DHT22;3136;48.788;9.772;2022-09-24T13:19:37;16.50;1.00
6206;DHT22;3136;48.788;9.772;2022-09-24T13:22:16;16.50;1.00
6206;DHT22;3136;48.788;9.772;2022-09-24T13:24:52;16.60;1.00
6206;DHT22;3136;48.788;9.772;2022-09-24T13:27:34;16.50;1.00
6206;DHT22;3136;48.788;9.772;2022-09-24T13:30:20;16.50;1.00
6206;DHT22;3136;48.788;9.772;2022-09-24T13:35:43;16.40;1.00
6206;DHT22;3136;48.788;9.772;2022-09-24T13:38:17;16.30;1.00
6206;DHT22;3136;48.788;9.772;2022-09-24T13:40:52;16.20;1.00
6206;DHT22;3136;48.788;9.772;2022-09-24T13:43:39;16.30;1.00
6206;DHT22;3136;48.788;9.772;2022-09-24T13:46:13;16.20;1.00
6206;DHT22;3136;48.788;9.772;2022-09-24T13:48:54;16.20;1.00
6206;DHT22;3136;48.788;9.772;2022-09-24T13:51:27;16.20;1.00
6206;DHT22;3136;48.788;9.772;2022-09-24T13:56:54;16.30;1.00
6206;DHT22;3136;48.788;9.772;2022-09-24T13:59:19;16.30;1.00
6206;DHT22;3136;48.788;9.772;2022-09-24T14:01:45;16.30;1.00
6206;DHT22;3136;48.788;9.772;2022-09-24T14:04:17;16.30;1.00
6206;DHT22;3136;48.788;9.772;2022-09-24T14:06:49;16.30;1.00
6206;DHT22;3136;48.788;9.772;2022-09-24T14:11:49;16.40;1.00
6206;DHT22;3136;48.788;9.772;2022-09-24T14:14:19;16.30;1.00
6206;DHT22;3136;48.788;9.772;2022-09-24T14:16:46;16.80;1.00
6206;DHT22;3136;48.788;9.772;2022-09-24T14:19:14;16.30;1.00
6206;DHT22;3136;48.788;9.772;2022-09-24T14:21:47;16.30;1.00
6206;DHT22;3136;48.788;9.772;2022-09-24T14:24:24;16.30;1.00
6206;DHT22;3136;48.788;9.772;2022-09-24T14:27:11;16.20;1.00
6206;DHT22;3136;48.788;9.772;2022-09-24T14:29:59;16.20;1.00
6206;DHT22;3136;48.788;9.772;2022-09-24T14:32:29;16.10;1.00
6206;DHT22;3136;48.788;9.772;2022-09-24T14:34:59;16.20;1.00
6206;DHT22;3136;48.788;9.772;2022-09-24T14:37:32;15.80;1.70
6206;DHT22;3136;48.788;9.772;2022-09-24T14:40:02;15.60;16.90
6206;DHT22;3136;48.788;9.772;2022-09-24T14:42:43;15.50;40.20
6206;DHT22;3136;48.788;9.772;2022-09-24T14:45:21;15.30;99.90
6206;DHT22;3136;48.788;9.772;2022-09-24T14:47:59;15.20;99.90
6206;DHT22;3136;48.788;9.772;2022-09-24T14:50:45;15.30;99.90
6206;DHT22;3136;48.788;9.772;2022-09-24T14:53:24;15.10;99.90
6206;DHT22;3136;48.788;9.772;2022-09-24T14:55:49;15.00;99.90
6206;DHT22;3136;48.788;9.772;2022-09-24T14:58:42;15.00;1.00
6206;DHT22;3136;48.788;9.772;2022-09-24T15:01:15;15.00;1.00
6206;DHT22;3136;48.788;9.772;2022-09-24T15:03:47;15.10;97.10
6206;DHT22;3136;48.788;9.772;2022-09-24T15:08:59;15.10;65.10
6206;DHT22;3136;48.788;9.772;2022-09-24T15:11:28;14.90;1.00
6206;DHT22;3136;48.788;9.772;2022-09-24T15:14:19;14.80;1.00
6206;DHT22;3136;48.788;9.772;2022-09-24T15:16:50;14.70;99.90
6206;DHT22;3136;48.788;9.772;2022-09-24T15:19:22;14.90;90.00
6206;DHT22;3136;48.788;9.772;2022-09-24T15:21:51;14.70;1.00
6206;DHT22;3136;48.788;9.772;2022-09-24T15:24:17;14.70;1.00
6206;DHT22;3136;48.788;9.772;2022-09-24T15:27:02;14.80;99.90
6206;DHT22;3136;48.788;9.772;2022-09-24T15:29:28;14.70;1.00
6206;DHT22;3136;48.788;9.772;2022-09-24T15:31:54;14.70;1.00
6206;DHT22;3136;48.788;9.772;2022-09-24T15:34:21;14.60;99.90
6206;DHT22;3136;48.788;9.772;2022-09-24T15:36:47;14.60;99.90
6206;DHT22;3136;48.788;9.772;2022-09-24T15:39:15;14.60;1.00
6206;DHT22;3136;48.788;9.772;2022-09-24T15:41:42;14.50;1.00
6206;DHT22;3136;48.788;9.772;2022-09-24T15:44:17;14.60;99.90
6206;DHT22;3136;48.788;9.772;2022-09-24T15:46:44;14.50;1.00
6206;DHT22;3136;48.788;9.772;2022-09-24T15:49:09;14.40;27.30
6206;DHT22;3136;48.788;9.772;2022-09-24T15:51:37;14.40;99.90
6206;DHT22;3136;48.788;9.772;2022-09-24T15:54:03;14.40;99.90
6206;DHT22;3136;48.788;9.772;2022-09-24T15:56:29;14.50;99.90
6206;DHT22;3136;48.788;9.772;2022-09-24T15:58:54;14.50;99.90
6206;DHT22;3136;48.788;9.772;2022-09-24T16:01:20;14.50;1.00
6206;DHT22;3136;48.788;9.772;2022-09-24T16:03:46;14.40;1.00
6206;DHT22;3136;48.788;9.772;2022-09-24T16:06:12;14.40;1.00
6206;DHT22;3136;48.788;9.772;2022-09-24T16:08:38;14.40;1.00
6206;DHT22;3136;48.788;9.772;2022-09-24T16:11:04;14.40;1.00
6206;DHT22;3136;48.788;9.772;2022-09-24T16:13:30;14.40;1.00
6206;DHT22;3136;48.788;9.772;2022-09-24T16:15:56;14.40;1.00
6206;DHT22;3136;48.788;9.772;2022-09-24T16:18:21;14.40;1.00
6206;DHT22;3136;48.788;9.772;2022-09-24T16:20:50;14.40;1.00
6206;DHT22;3136;48.788;9.772;2022-09-24T16:23:16;14.40;1.00
6206;DHT22;3136;48.788;9.772;2022-09-24T16:25:53;14.40;1.00
6206;DHT22;3136;48.788;9.772;2022-09-24T16:28:20;14.30;1.00
6206;DHT22;3136;48.788;9.772;2022-09-24T16:30:45;14.30;1.00
6206;DHT22;3136;48.788;9.772;2022-09-24T16:33:11;14.30;1.00
6206;DHT22;3136;48.788;9.772;2022-09-24T16:35:37;14.30;1.00
6206;DHT22;3136;48.788;9.772;2022-09-24T16:38:03;14.30;1.00
6206;DHT22;3136;48.788;9.772;2022-09-24T16:40:28;14.30;1.00
6206;DHT22;3136;48.788;9.772;2022-09-24T16:42:54;14.20;1.00
6206;DHT22;3136;48.788;9.772;2022-09-24T16:45:19;14.20;1.00
6206;DHT22;3136;48.788;9.772;2022-09-24T16:47:45;14.20;1.00
6206;DHT22;3136;48.788;9.772;2022-09-24T16:50:10;14.20;1.00
6206;DHT22;3136;48.788;9.772;2022-09-24T16:52:36;14.10;1.00
6206;DHT22;3136;48.788;9.772;2022-09-24T16:55:02;14.10;1.00
6206;DHT22;3136;48.788;9.772;2022-09-24T16:57:27;14.10;1.00
6206;DHT22;3136;48.788;9.772;2022-09-24T16:59:53;14.10;1.00
6206;DHT22;3136;48.788;9.772;2022-09-24T17:02:18;14.10;1.00
6206;DHT22;3136;48.788;9.772;2022-09-24T17:04:44;14.00;1.00
6206;DHT22;3136;48.788;9.772;2022-09-24T17:07:09;14.90;1.00
6206;DHT22;3136;48.788;9.772;2022-09-24T17:09:37;14.00;1.00
6206;DHT22;3136;48.788;9.772;2022-09-24T17:12:22;14.00;1.00
6206;DHT22;3136;48.788;9.772;2022-09-24T17:14:47;14.00;1.00
6206;DHT22;3136;48.788;9.772;2022-09-24T17:17:13;14.00;1.00
6206;DHT22;3136;48.788;9.772;2022-09-24T17:19:38;13.90;1.00
6206;DHT22;3136;48.788;9.772;2022-09-24T17:22:04;13.90;1.00
6206;DHT22;3136;48.788;9.772;2022-09-24T17:24:31;13.90;1.00
6206;DHT22;3136;48.788;9.772;2022-09-24T17:26:56;13.80;1.00
6206;DHT22;3136;48.788;9.772;2022-09-24T17:29:22;13.80;1.00
6206;DHT22;3136;48.788;9.772;2022-09-24T17:31:49;13.80;1.00
6206;DHT22;3136;48.788;9.772;2022-09-24T17:34:15;13.70;1.00
6206;DHT22;3136;48.788;9.772;2022-09-24T17:36:40;13.70;1.00
6206;DHT22;3136;48.788;9.772;2022-09-24T17:39:06;13.70;1.00
6206;DHT22;3136;48.788;9.772;2022-09-24T17:41:32;13.70;1.00
6206;DHT22;3136;48.788;9.772;2022-09-24T17:43:58;13.70;3.20
6206;DHT22;3136;48.788;9.772;2022-09-24T17:46:31;13.60;4.80
6206;DHT22;3136;48.788;9.772;2022-09-24T17:48:59;13.60;7.50
6206;DHT22;3136;48.788;9.772;2022-09-24T17:51:30;13.60;8.80
6206;DHT22;3136;48.788;9.772;2022-09-24T17:54:02;13.60;9.10
6206;DHT22;3136;48.788;9.772;2022-09-24T17:56:29;13.60;13.20
6206;DHT22;3136;48.788;9.772;2022-09-24T17:58:56;14.40;18.00
6206;DHT22;3136;48.788;9.772;2022-09-24T18:01:29;13.60;20.10
6206;DHT22;3136;48.788;9.772;2022-09-24T18:04:00;13.50;23.50
6206;DHT22;3136;48.788;9.772;2022-09-24T18:06:26;13.60;25.90
6206;DHT22;3136;48.788;9.772;2022-09-24T18:08:54;13.50;25.90
6206;DHT22;3136;48.788;9.772;2022-09-24T18:11:23;13.50;26.10
6206;DHT22;3136;48.788;9.772;2022-09-24T18:13:50;13.50;28.00
6206;DHT22;3136;48.788;9.772;2022-09-24T18:16:17;13.50;30.50
6206;DHT22;3136;48.788;9.772;2022-09-24T18:18:43;13.40;33.30
6206;DHT22;3136;48.788;9.772;2022-09-24T18:21:11;13.40;35.80
6206;DHT22;3136;48.788;9.772;2022-09-24T18:23:38;13.50;38.30
6206;DHT22;3136;48.788;9.772;2022-09-24T18:28:41;13.50;44.10
6206;DHT22;3136;48.788;9.772;2022-09-24T18:31:08;13.50;45.50